Time;durP1;ratioP1;P1;durP2;ratioP2;P2;SDS_P1;SDS_P2;PMS_P1;PMS_P2;Temp;Humidity;BMP_temperature;BMP_pressure;BME280_temperature;BME280_humidity;BME280_pressure;Samples;Min_cycle;Max_cycle;Signal;HPM_P1;HPM_P2
2021/07/21 00:01:44;;;;;;;8.67;6.70;;;14.70;97.30;;;;;;5038039;28;20469;-86
2021/07/21 00:04:10;;;;;;;11.20;6.97;;;14.70;97.30;;;;;;5038157;28;20200;-86
2021/07/21 00:06:35;;;;;;;13.27;6.80;;;14.70;97.30;;;;;;5037309;28;20868;-86
2021/07/21 00:09:01;;;;;;;11.33;6.80;;;14.70;97.30;;;;;;5036624;28;20523;-86
2021/07/21 00:14:19;;;;;;;15.77;6.90;;;14.70;97.30;;;;;;5036292;28;20283;-87
2021/07/21 00:16:57;;;;;;;8.30;5.90;;;14.70;97.30;;;;;;5032733;28;20436;-86
2021/07/21 00:22:08;;;;;;;15.03;6.60;;;14.60;97.30;;;;;;5030433;28;20550;-87
2021/07/21 00:24:33;;;;;;;10.10;6.60;;;14.60;97.30;;;;;;5031444;28;20454;-87
2021/07/21 00:27:01;;;;;;;12.97;6.57;;;14.50;97.30;;;;;;5032056;28;20415;-87
2021/07/21 00:29:27;;;;;;;10.33;6.30;;;14.50;97.30;;;;;;5032928;28;20180;-87
2021/07/21 00:31:53;;;;;;;8.67;5.83;;;14.50;97.30;;;;;;5035194;28;20485;-87
2021/07/21 00:34:18;;;;;;;11.00;6.87;;;14.40;97.30;;;;;;5031826;28;20716;-87
2021/07/21 00:36:44;;;;;;;10.20;7.00;;;14.40;97.30;;;;;;5034313;28;20636;-86
2021/07/21 00:39:09;;;;;;;9.53;7.70;;;14.40;97.30;;;;;;5035615;28;20180;-86
2021/07/21 00:41:35;;;;;;;10.63;7.00;;;14.30;97.30;;;;;;5038566;28;20180;-86
2021/07/21 00:44:00;;;;;;;10.83;6.90;;;14.20;97.30;;;;;;5035376;28;20184;-86
2021/07/21 00:46:26;;;;;;;12.93;6.97;;;14.20;97.30;;;;;;5034751;28;20208;-86
2021/07/21 00:48:51;;;;;;;14.03;7.50;;;14.20;97.30;;;;;;5033894;28;20173;-86
2021/07/21 00:51:17;;;;;;;11.90;6.77;;;14.20;97.30;;;;;;5032560;28;20175;-87
2021/07/21 00:53:44;;;;;;;17.53;6.83;;;14.20;97.30;;;;;;5032034;28;20176;-86
2021/07/21 00:56:10;;;;;;;11.67;6.20;;;14.20;97.30;;;;;;5032563;28;20835;-87
2021/07/21 00:58:35;;;;;;;14.20;7.20;;;14.20;97.30;;;;;;5031182;28;20435;-87
2021/07/21 01:01:01;;;;;;;11.20;6.37;;;14.20;97.30;;;;;;5035252;28;20441;-87
2021/07/21 01:03:26;;;;;;;11.87;6.73;;;14.20;97.30;;;;;;5031569;28;20227;-86
2021/07/21 01:05:52;;;;;;;11.47;7.60;;;14.20;97.30;;;;;;5031704;28;20204;-87
2021/07/21 01:08:19;;;;;;;8.73;6.00;;;14.20;97.30;;;;;;5031963;28;20180;-87
2021/07/21 01:10:54;;;;;;;10.60;7.27;;;14.10;97.30;;;;;;5032551;28;20175;-86
2021/07/21 01:13:25;;;;;;;8.77;6.80;;;14.10;97.30;;;;;;5033611;28;20419;-87
2021/07/21 01:16:04;;;;;;;9.80;7.13;;;14.00;97.30;;;;;;5014508;28;20889;-87
2021/07/21 01:18:57;;;;;;;11.57;7.47;;;14.00;97.30;;;;;;5032724;28;20423;-87
2021/07/21 01:22:07;;;;;;;12.33;8.17;;;14.00;97.30;;;;;;5031582;28;20427;-87
2021/07/21 01:24:51;;;;;;;11.83;7.90;;;14.00;97.30;;;;;;5033914;28;20537;-85
2021/07/21 01:27:33;;;;;;;9.90;7.23;;;13.90;97.30;;;;;;5032968;28;20408;-86
2021/07/21 01:30:10;;;;;;;14.17;7.10;;;13.90;97.30;;;;;;5042912;28;20481;-84
2021/07/21 01:32:38;;;;;;;12.53;7.13;;;13.90;97.30;;;;;;5032972;28;20484;-84
2021/07/21 01:35:15;;;;;;;14.20;7.60;;;13.90;97.30;;;;;;5032581;28;20999;-84
2021/07/21 01:37:48;;;;;;;10.60;6.77;;;13.90;97.30;;;;;;5032999;28;20429;-84
2021/07/21 01:40:21;;;;;;;15.60;6.97;;;13.90;97.30;;;;;;5032155;28;20485;-84
2021/07/21 01:42:50;;;;;;;12.00;7.87;;;13.90;97.30;;;;;;5033631;28;20526;-85
2021/07/21 01:45:16;;;;;;;12.17;7.20;;;13.90;97.30;;;;;;5032417;28;20463;-87
2021/07/21 01:47:44;;;;;;;13.00;6.83;;;13.90;97.30;;;;;;5032993;28;20423;-85
2021/07/21 01:50:11;;;;;;;15.53;7.90;;;13.90;97.30;;;;;;5032890;28;20184;-87
2021/07/21 01:52:40;;;;;;;11.93;7.00;;;13.90;97.30;;;;;;5031261;28;20473;-84
2021/07/21 01:55:07;;;;;;;12.63;7.57;;;13.90;97.30;;;;;;5030017;28;20451;-84
2021/07/21 01:57:33;;;;;;;11.20;7.30;;;13.80;97.30;;;;;;5030995;28;20469;-84
2021/07/21 02:00:01;;;;;;;11.97;7.70;;;13.80;97.30;;;;;;5030757;28;20419;-83
2021/07/21 02:02:28;;;;;;;12.70;7.90;;;13.80;97.30;;;;;;5016710;28;21019;-84
2021/07/21 02:04:54;;;;;;;12.83;7.77;;;13.80;97.30;;;;;;5014165;28;20948;-87
2021/07/21 02:07:23;;;;;;;15.27;6.80;;;13.80;97.30;;;;;;5032770;28;20457;-84
2021/07/21 02:09:49;;;;;;;12.47;7.30;;;13.80;97.30;;;;;;5032399;28;20418;-85
2021/07/21 02:12:15;;;;;;;11.50;7.97;;;13.70;97.30;;;;;;5033470;28;20441;-84
2021/07/21 02:14:43;;;;;;;11.47;7.50;;;13.70;97.30;;;;;;5035096;28;20751;-84
2021/07/21 02:17:09;;;;;;;10.97;6.90;;;13.70;97.30;;;;;;5034060;28;20177;-83
2021/07/21 02:19:35;;;;;;;11.57;7.97;;;13.70;97.30;;;;;;5033585;28;20419;-85
2021/07/21 02:22:01;;;;;;;14.17;8.37;;;13.70;97.30;;;;;;5046688;28;20517;-85
2021/07/21 02:24:31;;;;;;;13.83;7.17;;;13.60;97.30;;;;;;5042652;28;20195;-85
2021/07/21 02:26:57;;;;;;;10.90;7.67;;;13.60;97.30;;;;;;5028997;28;20497;-84
2021/07/21 02:29:23;;;;;;;13.60;7.70;;;13.60;97.30;;;;;;5029922;28;20929;-85
2021/07/21 02:32:03;;;;;;;13.70;7.77;;;13.60;97.30;;;;;;5029440;28;20423;-85
2021/07/21 02:34:29;;;;;;;14.17;7.23;;;13.60;97.30;;;;;;5031203;28;20504;-85
2021/07/21 02:36:56;;;;;;;13.07;7.60;;;13.60;97.30;;;;;;5035472;28;20941;-87
2021/07/21 02:39:22;;;;;;;16.10;8.40;;;13.60;97.30;;;;;;5037767;28;20184;-86
2021/07/21 02:41:48;;;;;;;14.77;7.50;;;13.60;97.30;;;;;;5036406;28;20426;-86
2021/07/21 02:44:14;;;;;;;13.10;7.80;;;13.50;97.30;;;;;;5038173;28;20646;-84
2021/07/21 02:46:39;;;;;;;12.93;7.67;;;13.50;97.30;;;;;;5037195;28;20231;-84
2021/07/21 02:49:05;;;;;;;14.30;7.77;;;13.50;97.30;;;;;;5036594;28;20427;-85
2021/07/21 02:51:52;;;;;;;12.00;8.40;;;13.50;97.30;;;;;;5048925;28;20730;-84
2021/07/21 02:54:31;;;;;;;12.50;7.07;;;13.50;97.30;;;;;;5048486;28;20199;-84
2021/07/21 02:57:07;;;;;;;11.43;6.73;;;13.50;97.30;;;;;;5036233;28;20423;-84
2021/07/21 02:59:53;;;;;;;12.77;7.07;;;13.40;97.30;;;;;;5035985;28;20467;-84
2021/07/21 03:02:22;;;;;;;22.83;9.10;;;13.40;97.30;;;;;;5053120;28;20453;-83
2021/07/21 03:04:50;;;;;;;12.50;7.90;;;13.40;97.30;;;;;;5035623;28;20439;-85
2021/07/21 03:07:17;;;;;;;14.23;7.87;;;13.40;97.30;;;;;;5034058;28;20992;-85
2021/07/21 03:09:44;;;;;;;14.40;9.10;;;13.40;97.30;;;;;;5035034;28;20446;-85
2021/07/21 03:12:12;;;;;;;14.00;7.67;;;13.30;97.30;;;;;;5034495;28;20514;-85
2021/07/21 03:14:40;;;;;;;12.70;8.10;;;13.30;97.30;;;;;;5036533;28;20580;-85
2021/07/21 03:17:07;;;;;;;22.43;9.07;;;13.30;97.30;;;;;;5035317;28;20420;-84
2021/07/21 03:19:34;;;;;;;18.70;9.10;;;13.30;97.30;;;;;;5039660;28;20531;-85
2021/07/21 03:22:02;;;;;;;17.00;8.60;;;13.20;97.30;;;;;;5035719;28;20447;-85
2021/07/21 03:24:28;;;;;;;14.90;8.43;;;13.20;97.30;;;;;;5036249;28;20542;-84
2021/07/21 03:26:55;;;;;;;14.40;8.70;;;13.30;97.30;;;;;;5036344;28;20493;-85
2021/07/21 03:29:21;;;;;;;14.73;8.73;;;13.20;97.30;;;;;;5035374;28;20232;-83
2021/07/21 03:31:48;;;;;;;13.23;8.20;;;13.30;97.30;;;;;;5036070;28;20831;-85
2021/07/21 03:34:16;;;;;;;16.40;8.57;;;13.20;97.30;;;;;;5034732;28;20415;-85
2021/07/21 03:36:45;;;;;;;19.83;9.97;;;13.20;97.30;;;;;;5036823;28;20490;-85
2021/07/21 03:39:12;;;;;;;15.97;9.10;;;13.20;97.30;;;;;;5035477;28;21111;-85
2021/07/21 03:41:38;;;;;;;13.90;8.73;;;13.30;97.30;;;;;;5035467;28;20961;-84
2021/07/21 03:44:06;;;;;;;16.13;9.60;;;13.30;97.30;;;;;;5036684;28;20461;-85
2021/07/21 03:46:35;;;;;;;14.67;8.63;;;13.30;97.30;;;;;;5032604;28;21019;-86
2021/07/21 03:49:00;;;;;;;18.80;10.13;;;13.30;97.30;;;;;;5038545;28;20427;-85
2021/07/21 03:51:31;;;;;;;17.93;10.10;;;13.30;97.30;;;;;;5033849;28;20804;-86
2021/07/21 03:53:57;;;;;;;15.50;9.60;;;13.40;97.30;;;;;;5034491;28;20176;-86
2021/07/21 03:56:25;;;;;;;18.13;10.30;;;13.40;97.30;;;;;;5032848;28;20434;-86
2021/07/21 03:58:51;;;;;;;17.27;10.03;;;13.40;97.30;;;;;;5032836;28;20423;-86
2021/07/21 04:01:17;;;;;;;14.10;9.87;;;13.40;97.30;;;;;;5031977;28;20434;-86
2021/07/21 04:03:45;;;;;;;21.60;10.80;;;13.40;97.30;;;;;;5036893;28;20565;-86
2021/07/21 04:06:11;;;;;;;14.97;9.93;;;13.50;97.30;;;;;;5034452;28;20902;-85
2021/07/21 04:08:38;;;;;;;25.23;11.00;;;13.50;97.30;;;;;;5033431;28;20656;-86
2021/07/21 04:11:05;;;;;;;18.17;10.57;;;13.50;97.30;;;;;;5037546;28;20818;-85
2021/07/21 04:13:34;;;;;;;18.43;10.80;;;13.50;97.30;;;;;;5035283;28;20513;-88
2021/07/21 04:15:59;;;;;;;16.50;10.10;;;13.60;97.30;;;;;;5036757;28;21020;-86
2021/07/21 04:18:26;;;;;;;15.83;10.30;;;13.60;97.30;;;;;;5037388;28;20419;-85
2021/07/21 04:20:53;;;;;;;15.23;9.83;;;13.60;97.30;;;;;;5038149;28;21488;-85
2021/07/21 04:23:20;;;;;;;18.97;10.13;;;13.60;97.30;;;;;;5045335;28;20497;-86
2021/07/21 04:25:50;;;;;;;18.70;11.40;;;13.60;97.30;;;;;;5034636;28;20502;-84
2021/07/21 04:28:15;;;;;;;15.30;10.17;;;13.70;97.30;;;;;;5035385;28;20955;-86
2021/07/21 04:30:42;;;;;;;19.10;10.87;;;13.70;97.30;;;;;;5033393;28;20435;-87
2021/07/21 04:33:08;;;;;;;18.53;10.67;;;13.70;97.30;;;;;;5044618;28;20251;-86
2021/07/21 04:35:34;;;;;;;18.77;11.77;;;13.70;97.30;;;;;;5035118;28;20479;-87
2021/07/21 04:38:00;;;;;;;18.97;11.97;;;13.70;97.30;;;;;;5033102;28;20214;-86
2021/07/21 04:40:26;;;;;;;21.83;12.43;;;13.70;97.30;;;;;;5033617;28;20176;-87
2021/07/21 04:42:51;;;;;;;19.83;11.27;;;13.70;97.30;;;;;;5047304;28;20457;-87
2021/07/21 04:45:17;;;;;;;17.13;10.90;;;13.70;97.30;;;;;;5034373;28;20307;-86
2021/07/21 04:47:43;;;;;;;20.83;11.20;;;13.80;97.30;;;;;;5025077;28;20193;-84
2021/07/21 04:50:13;;;;;;;19.50;11.07;;;13.80;97.30;;;;;;5035630;28;20184;-86
2021/07/21 04:52:39;;;;;;;16.50;10.73;;;13.80;97.30;;;;;;5035777;28;20423;-86
2021/07/21 04:55:06;;;;;;;24.10;12.80;;;13.80;97.30;;;;;;5034645;28;20439;-87
2021/07/21 04:57:31;;;;;;;22.33;12.27;;;13.90;97.30;;;;;;5035976;28;20430;-84
2021/07/21 04:59:58;;;;;;;19.30;11.10;;;14.00;97.30;;;;;;5033258;28;20554;-87
2021/07/21 05:02:23;;;;;;;17.80;10.67;;;14.00;97.30;;;;;;5032562;28;20226;-86
2021/07/21 05:04:49;;;;;;;18.93;12.10;;;14.00;97.30;;;;;;5035820;28;20435;-87
2021/07/21 05:07:16;;;;;;;20.40;11.50;;;14.00;97.30;;;;;;5056568;28;20227;-89
2021/07/21 05:09:44;;;;;;;20.77;12.00;;;14.10;97.30;;;;;;5049015;28;20185;-86
2021/07/21 05:12:10;;;;;;;20.90;10.90;;;14.10;97.30;;;;;;5032531;28;20427;-87
2021/07/21 05:14:35;;;;;;;28.30;12.83;;;14.20;97.30;;;;;;5035153;28;20524;-87
2021/07/21 05:17:03;;;;;;;16.70;10.30;;;14.20;97.30;;;;;;5033811;28;20271;-86
2021/07/21 05:19:29;;;;;;;20.73;11.87;;;14.20;97.30;;;;;;5033691;28;20180;-86
2021/07/21 05:21:54;;;;;;;23.30;11.90;;;14.30;97.30;;;;;;5032532;28;20442;-87
2021/07/21 05:24:25;;;;;;;18.03;11.60;;;14.30;97.30;;;;;;5031256;28;20248;-88
2021/07/21 05:26:50;;;;;;;20.73;10.70;;;14.30;97.30;;;;;;5033142;28;20204;-87
2021/07/21 05:29:16;;;;;;;18.10;10.80;;;14.40;97.30;;;;;;5033400;28;20423;-86
2021/07/21 05:31:41;;;;;;;20.63;11.23;;;14.40;97.30;;;;;;5034135;28;20606;-86
2021/07/21 05:34:07;;;;;;;19.70;10.53;;;14.40;97.30;;;;;;5033034;28;20722;-86
2021/07/21 05:36:36;;;;;;;17.10;10.17;;;14.50;97.30;;;;;;5034812;28;20195;-86
2021/07/21 05:39:07;;;;;;;24.03;11.93;;;14.50;97.30;;;;;;5033746;28;20172;-85
2021/07/21 05:41:33;;;;;;;22.37;11.80;;;14.60;97.30;;;;;;5033890;28;20434;-87
2021/07/21 05:43:58;;;;;;;21.80;10.97;;;14.60;97.30;;;;;;5034813;28;20806;-86
2021/07/21 05:46:25;;;;;;;15.50;10.10;;;14.60;97.30;;;;;;5033727;28;20553;-87
2021/07/21 05:48:54;;;;;;;16.70;10.00;;;14.70;97.30;;;;;;5034059;28;20568;-87
2021/07/21 05:51:24;;;;;;;22.60;11.40;;;14.70;97.30;;;;;;5032054;28;20423;-87
2021/07/21 05:53:50;;;;;;;20.30;11.00;;;14.80;97.30;;;;;;5030846;28;20458;-87
2021/07/21 05:56:15;;;;;;;20.17;11.30;;;14.80;97.30;;;;;;5031003;28;20472;-86
2021/07/21 05:58:41;;;;;;;21.60;11.17;;;14.90;97.30;;;;;;5032555;28;20212;-87
2021/07/21 06:01:07;;;;;;;22.20;11.87;;;14.90;97.30;;;;;;5029963;28;20669;-87
2021/07/21 06:03:33;;;;;;;18.30;10.87;;;15.00;97.30;;;;;;5031254;28;20423;-87
2021/07/21 06:05:58;;;;;;;20.40;11.27;;;15.00;97.30;;;;;;5031379;28;20200;-86
2021/07/21 06:08:24;;;;;;;27.83;11.10;;;15.00;97.30;;;;;;5032651;28;20722;-86
2021/07/21 06:10:50;;;;;;;20.97;11.40;;;15.10;97.30;;;;;;5028849;28;20574;-87
2021/07/21 06:13:16;;;;;;;18.83;10.93;;;15.10;97.30;;;;;;5030275;28;20204;-87
2021/07/21 06:15:42;;;;;;;21.77;11.17;;;15.10;97.30;;;;;;5025943;28;20443;-87
2021/07/21 06:18:13;;;;;;;21.70;11.73;;;15.20;97.30;;;;;;5027936;28;20242;-86
2021/07/21 06:20:46;;;;;;;20.47;10.77;;;15.20;97.30;;;;;;5034488;28;20423;-86
2021/07/21 06:23:14;;;;;;;18.27;11.10;;;15.30;97.30;;;;;;5024843;28;20424;-85
2021/07/21 06:25:39;;;;;;;19.17;11.73;;;15.30;97.30;;;;;;5026668;28;20463;-83
2021/07/21 06:28:05;;;;;;;19.87;11.00;;;15.40;97.30;;;;;;5023262;28;20403;-86
2021/07/21 06:30:32;;;;;;;19.03;10.10;;;15.50;97.30;;;;;;5024156;28;20184;-84
2021/07/21 06:33:00;;;;;;;16.60;10.03;;;15.50;97.30;;;;;;5023290;28;20164;-86
2021/07/21 06:35:26;;;;;;;19.60;11.20;;;15.60;97.30;;;;;;5025599;28;20997;-86
2021/07/21 06:37:53;;;;;;;20.47;11.70;;;15.60;97.30;;;;;;5031353;28;20435;-86
2021/07/21 06:40:20;;;;;;;20.13;10.80;;;15.70;97.30;;;;;;5027828;28;20177;-86
2021/07/21 06:42:45;;;;;;;19.03;11.27;;;15.80;97.30;;;;;;5019390;28;20503;-86
2021/07/21 06:45:11;;;;;;;21.10;10.57;;;15.90;97.30;;;;;;5020524;28;20921;-86
2021/07/21 06:47:36;;;;;;;18.90;10.10;;;15.90;97.30;;;;;;5026701;28;20235;-86
2021/07/21 06:50:02;;;;;;;20.03;10.47;;;16.00;97.30;;;;;;5023815;28;20219;-86
2021/07/21 06:52:28;;;;;;;18.20;10.20;;;16.00;97.30;;;;;;5022406;28;20188;-86
2021/07/21 06:54:54;;;;;;;21.70;10.93;;;16.10;97.30;;;;;;5024249;28;20477;-87
2021/07/21 06:57:19;;;;;;;15.83;9.77;;;16.10;97.30;;;;;;5029980;28;20200;-86
2021/07/21 06:59:45;;;;;;;20.27;10.90;;;16.20;97.30;;;;;;5031897;28;20180;-86
2021/07/21 07:02:11;;;;;;;21.13;10.90;;;16.30;97.30;;;;;;5031782;28;20621;-86
2021/07/21 07:04:37;;;;;;;24.87;10.33;;;16.40;97.30;;;;;;5033177;28;20435;-86
2021/07/21 07:07:03;;;;;;;25.70;11.23;;;16.40;97.30;;;;;;5031684;28;20455;-85
2021/07/21 07:09:33;;;;;;;23.77;11.47;;;16.50;97.30;;;;;;5031923;28;20234;-86
2021/07/21 07:11:59;;;;;;;22.00;10.63;;;16.60;97.30;;;;;;5032828;28;20395;-86
2021/07/21 07:14:25;;;;;;;18.87;10.90;;;16.60;97.30;;;;;;5031835;28;20842;-85
2021/07/21 07:16:50;;;;;;;19.30;11.00;;;16.70;97.30;;;;;;5030444;28;20181;-86
2021/07/21 07:19:16;;;;;;;18.53;10.50;;;16.80;97.30;;;;;;5032198;28;20693;-86
2021/07/21 07:21:44;;;;;;;23.73;11.03;;;16.90;97.30;;;;;;5032021;28;20235;-85
2021/07/21 07:24:10;;;;;;;27.97;10.13;;;16.90;97.30;;;;;;5035612;28;20180;-86
2021/07/21 07:26:36;;;;;;;17.13;10.13;;;17.00;97.30;;;;;;5034952;28;20454;-86
2021/07/21 07:29:03;;;;;;;17.97;9.80;;;17.00;97.30;;;;;;5035416;28;20473;-87
2021/07/21 07:31:31;;;;;;;23.33;10.53;;;17.10;97.30;;;;;;5035158;28;20180;-85
2021/07/21 07:33:57;;;;;;;18.30;10.80;;;17.20;97.30;;;;;;5035390;28;20921;-86
2021/07/21 07:36:25;;;;;;;19.57;10.80;;;17.30;97.30;;;;;;5036323;28;20469;-86
2021/07/21 07:39:10;;;;;;;;;;;;;;;;;;;;;
2021/07/21 07:41:37;;;;;;;20.03;9.90;;;17.40;97.30;;;;;;5036131;28;20446;-87
2021/07/21 07:44:07;;;;;;;19.97;10.10;;;17.50;97.30;;;;;;5034313;28;20414;-84
2021/07/21 07:46:36;;;;;;;23.73;10.43;;;17.60;97.30;;;;;;5036131;28;20451;-88
2021/07/21 07:49:02;;;;;;;21.20;11.57;;;17.70;97.30;;;;;;5035353;28;20481;-85
2021/07/21 07:51:33;;;;;;;16.93;9.93;;;17.70;97.30;;;;;;5036318;28;20806;-86
2021/07/21 07:54:03;;;;;;;22.23;10.30;;;17.80;97.30;;;;;;5035356;28;20415;-86
2021/07/21 07:56:36;;;;;;;16.20;9.10;;;17.90;97.30;;;;;;5035826;28;20867;-86
2021/07/21 07:59:05;;;;;;;18.73;9.70;;;18.00;97.30;;;;;;5036506;28;20435;-87
2021/07/21 08:01:40;;;;;;;21.90;10.10;;;18.10;97.30;;;;;;5034745;28;20454;-86
2021/07/21 08:04:06;;;;;;;22.53;10.43;;;18.20;97.30;;;;;;5035169;28;20801;-86
2021/07/21 08:06:33;;;;;;;22.20;10.40;;;18.30;97.30;;;;;;5034866;28;20498;-87
2021/07/21 08:08:59;;;;;;;16.37;10.33;;;18.40;97.30;;;;;;5033868;28;20658;-86
2021/07/21 08:11:24;;;;;;;19.30;9.40;;;18.40;97.30;;;;;;5032389;28;20521;-86
2021/07/21 08:13:50;;;;;;;17.90;9.50;;;18.40;97.30;;;;;;5032884;28;20187;-86
2021/07/21 08:16:16;;;;;;;22.33;10.70;;;18.50;97.30;;;;;;5023963;23;20229;-83
2021/07/21 08:18:41;;;;;;;18.50;10.03;;;18.60;97.30;;;;;;5016493;28;20181;-83
2021/07/21 08:21:07;;;;;;;19.43;9.63;;;18.60;97.30;;;;;;5016627;28;20441;-83
2021/07/21 08:23:33;;;;;;;17.53;9.50;;;18.70;97.30;;;;;;5017379;28;20567;-83
2021/07/21 08:25:59;;;;;;;17.07;9.03;;;18.70;97.30;;;;;;5016914;28;20215;-83
2021/07/21 08:28:25;;;;;;;19.50;8.10;;;18.80;97.30;;;;;;5017424;28;20538;-83
2021/07/21 08:30:50;;;;;;;20.07;10.00;;;18.90;97.30;;;;;;5016388;28;20478;-84
2021/07/21 08:33:16;;;;;;;21.70;9.80;;;18.90;97.30;;;;;;5016755;28;20671;-83
2021/07/21 08:35:44;;;;;;;21.20;9.03;;;19.00;97.30;;;;;;5015284;28;20654;-83
2021/07/21 08:38:10;;;;;;;18.40;9.63;;;19.10;97.30;;;;;;5018066;28;20410;-83
2021/07/21 08:40:37;;;;;;;17.50;9.13;;;19.30;97.30;;;;;;5015898;28;20436;-83
2021/07/21 08:43:07;;;;;;;21.57;9.10;;;19.30;97.30;;;;;;5018251;28;20476;-83
2021/07/21 08:45:33;;;;;;;16.57;8.30;;;19.40;97.30;;;;;;5015681;28;20883;-83
2021/07/21 08:47:58;;;;;;;20.10;9.30;;;19.40;97.30;;;;;;5016527;28;20424;-84
2021/07/21 08:50:24;;;;;;;14.40;7.73;;;19.40;97.30;;;;;;5016402;28;20490;-83
2021/07/21 08:52:53;;;;;;;11.97;7.20;;;19.50;97.30;;;;;;5016444;28;20177;-83
2021/07/21 08:55:22;;;;;;;11.00;6.97;;;19.60;97.30;;;;;;5015575;28;20183;-83
2021/07/21 08:57:48;;;;;;;13.10;7.57;;;19.60;97.30;;;;;;5016111;28;20436;-83
2021/07/21 09:00:16;;;;;;;13.40;7.20;;;19.60;97.30;;;;;;5015630;28;20412;-83
2021/07/21 09:02:45;;;;;;;13.40;7.70;;;19.60;97.30;;;;;;5016127;28;20511;-84
2021/07/21 09:05:14;;;;;;;14.63;7.93;;;19.60;97.30;;;;;;5015544;28;20412;-83
2021/07/21 09:07:41;;;;;;;14.77;7.83;;;19.70;97.30;;;;;;5016222;28;20424;-83
2021/07/21 09:10:09;;;;;;;12.03;7.23;;;19.70;97.30;;;;;;5014609;28;20488;-83
2021/07/21 09:12:39;;;;;;;13.30;7.00;;;19.80;97.30;;;;;;5014681;28;20448;-84
2021/07/21 09:15:07;;;;;;;14.30;8.03;;;19.80;97.30;;;;;;5030597;28;20471;-83
2021/07/21 09:17:33;;;;;;;13.73;7.70;;;19.80;97.30;;;;;;5030962;28;20433;-83
2021/07/21 09:19:59;;;;;;;14.83;8.33;;;19.80;97.30;;;;;;5016592;28;20436;-83
2021/07/21 09:22:25;;;;;;;11.57;7.00;;;19.80;97.30;;;;;;5016635;28;20201;-83
2021/07/21 09:25:17;;;;;;;14.57;7.90;;;19.80;97.30;;;;;;5015677;28;20546;-83
2021/07/21 09:27:53;;;;;;;11.23;7.00;;;19.80;97.30;;;;;;5017619;28;20984;-83
2021/07/21 09:30:34;;;;;;;17.20;8.43;;;19.80;97.30;;;;;;5016067;28;20610;-83
2021/07/21 09:33:12;;;;;;;14.10;7.50;;;19.80;97.30;;;;;;5017622;28;20415;-83
2021/07/21 09:35:40;;;;;;;15.33;7.20;;;19.80;97.30;;;;;;5018652;28;20439;-83
2021/07/21 09:38:28;;;;;;;17.03;7.90;;;19.80;97.30;;;;;;5017537;28;20424;-84
2021/07/21 09:40:56;;;;;;;12.70;7.90;;;19.80;97.30;;;;;;5017247;28;20428;-83
2021/07/21 09:43:25;;;;;;;13.10;7.30;;;19.90;97.30;;;;;;5016657;28;20466;-83
2021/07/21 09:45:51;;;;;;;16.10;7.10;;;19.90;97.30;;;;;;5016656;28;20591;-83
2021/07/21 09:48:20;;;;;;;12.27;7.00;;;20.00;97.30;;;;;;5016040;28;20941;-84
2021/07/21 09:50:48;;;;;;;12.50;7.23;;;20.00;97.30;;;;;;5014982;28;20192;-84
2021/07/21 09:53:15;;;;;;;10.93;7.33;;;20.00;97.30;;;;;;5015411;28;20432;-84
2021/07/21 09:55:45;;;;;;;13.73;7.33;;;20.00;97.30;;;;;;5017245;28;20745;-84
2021/07/21 09:58:18;;;;;;;13.13;7.13;;;20.00;97.30;;;;;;5017345;28;20666;-84
2021/07/21 10:00:46;;;;;;;11.50;7.30;;;20.00;97.30;;;;;;5016630;28;21031;-84
2021/07/21 10:03:19;;;;;;;10.47;6.67;;;20.00;97.30;;;;;;5016741;28;20416;-84
2021/07/21 10:06:01;;;;;;;11.30;7.43;;;20.00;97.30;;;;;;5017140;28;20991;-84
2021/07/21 10:08:28;;;;;;;11.67;7.67;;;20.00;96.80;;;;;;5000508;28;20432;-84
2021/07/21 10:10:54;;;;;;;15.27;8.07;;;19.90;96.80;;;;;;5016359;28;20455;-84
2021/07/21 10:13:20;;;;;;;13.60;7.70;;;20.00;97.30;;;;;;5017513;28;20518;-84
2021/07/21 10:15:47;;;;;;;14.77;7.20;;;20.00;97.30;;;;;;5016488;28;20468;-82
2021/07/21 10:18:15;;;;;;;11.27;7.73;;;20.00;97.30;;;;;;5016425;28;20637;-82
2021/07/21 10:20:43;;;;;;;13.03;7.83;;;20.10;97.30;;;;;;5016431;28;20502;-82
2021/07/21 10:23:09;;;;;;;12.87;7.40;;;20.10;97.30;;;;;;5015283;28;20428;-82
2021/07/21 10:25:37;;;;;;;11.90;7.70;;;20.20;97.30;;;;;;5015973;28;20468;-83
2021/07/21 10:28:03;;;;;;;12.57;7.60;;;20.20;96.60;;;;;;5016729;28;20594;-83
2021/07/21 10:30:31;;;;;;;13.20;7.27;;;20.20;96.80;;;;;;5016459;28;20431;-83
2021/07/21 10:32:57;;;;;;;11.63;7.63;;;20.20;97.20;;;;;;5014910;28;20424;-83
2021/07/21 10:35:24;;;;;;;8.70;5.87;;;20.20;95.20;;;;;;5015062;28;20436;-83
2021/07/21 10:37:52;;;;;;;10.03;6.50;;;20.20;94.90;;;;;;5015714;28;20479;-83
2021/07/21 10:40:28;;;;;;;11.93;7.10;;;20.20;95.20;;;;;;5016009;28;20434;-83
2021/07/21 10:42:57;;;;;;;11.63;7.10;;;20.20;96.70;;;;;;5017471;28;20419;-83
2021/07/21 10:45:28;;;;;;;15.33;7.40;;;20.30;97.30;;;;;;5016717;28;20456;-83
2021/07/21 10:47:59;;;;;;;11.17;7.27;;;20.30;96.10;;;;;;5015431;28;20431;-83
2021/07/21 10:50:26;;;;;;;12.73;7.50;;;20.40;94.40;;;;;;5016824;28;20965;-83
2021/07/21 10:53:38;;;;;;;13.90;7.00;;;20.40;95.10;;;;;;5018252;28;20558;-83
2021/07/21 10:59:11;;;;;;;10.57;6.13;;;20.50;95.10;;;;;;5020576;28;20466;-83
2021/07/21 11:02:01;;;;;;;10.07;6.23;;;20.60;93.50;;;;;;5020360;28;20451;-83
2021/07/21 11:04:45;;;;;;;9.83;5.97;;;20.60;93.00;;;;;;5011720;28;20412;-83
2021/07/21 11:07:16;;;;;;;13.03;7.40;;;20.70;92.00;;;;;;5019201;28;20801;-83
2021/07/21 11:09:43;;;;;;;14.60;8.43;;;20.70;92.70;;;;;;5020762;28;20420;-83
2021/07/21 11:12:09;;;;;;;16.13;8.33;;;20.80;94.50;;;;;;5020076;28;20436;-83
2021/07/21 11:14:34;;;;;;;13.10;7.97;;;20.80;96.30;;;;;;5021052;28;20494;-83
2021/07/21 11:17:06;;;;;;;14.63;7.70;;;20.90;96.30;;;;;;5021203;28;20423;-83
2021/07/21 11:19:51;;;;;;;10.83;7.13;;;20.90;96.50;;;;;;5022139;28;20192;-83
2021/07/21 11:22:20;;;;;;;14.73;8.70;;;21.00;95.30;;;;;;5014173;28;20451;-83
2021/07/21 11:25:15;;;;;;;12.43;7.53;;;21.00;94.40;;;;;;5011554;28;20423;-83
2021/07/21 11:27:44;;;;;;;15.40;8.33;;;21.00;96.40;;;;;;5013023;28;20515;-83
2021/07/21 11:30:40;;;;;;;13.23;8.10;;;21.00;96.70;;;;;;5011424;28;20421;-82
2021/07/21 11:33:44;;;;;;;16.50;8.07;;;21.00;96.00;;;;;;5007562;28;20486;-82
2021/07/21 11:36:10;;;;;;;10.43;7.03;;;21.00;95.50;;;;;;5012172;28;20416;-83
2021/07/21 11:38:50;;;;;;;13.50;7.53;;;21.00;95.60;;;;;;5007409;28;20417;-84
2021/07/21 11:41:44;;;;;;;17.47;8.80;;;20.90;94.20;;;;;;5011111;28;20438;-83
2021/07/21 11:44:11;;;;;;;14.27;7.90;;;20.90;95.00;;;;;;5007424;28;20428;-83
2021/07/21 11:46:37;;;;;;;14.60;8.80;;;20.90;95.20;;;;;;5011545;28;20993;-83
2021/07/21 11:49:03;;;;;;;14.40;7.60;;;20.90;95.30;;;;;;5006517;28;20508;-83
2021/07/21 11:51:29;;;;;;;15.10;8.90;;;21.00;95.90;;;;;;5014269;28;20440;-83
2021/07/21 11:53:55;;;;;;;13.80;8.30;;;21.00;93.90;;;;;;5005585;28;20440;-83
2021/07/21 11:56:21;;;;;;;15.17;8.33;;;20.90;94.40;;;;;;5010118;28;20169;-84
2021/07/21 11:58:46;;;;;;;17.60;8.47;;;20.90;94.00;;;;;;5005881;28;20178;-84
2021/07/21 12:01:12;;;;;;;11.53;7.50;;;20.90;94.20;;;;;;5007848;28;20193;-84
2021/07/21 12:03:48;;;;;;;14.70;7.80;;;21.00;94.90;;;;;;5008775;28;20181;-84
2021/07/21 12:06:25;;;;;;;13.97;7.93;;;21.10;95.70;;;;;;5010423;28;20463;-84
2021/07/21 12:08:54;;;;;;;20.13;8.70;;;21.10;95.90;;;;;;5006758;28;20420;-84
2021/07/21 12:11:26;;;;;;;15.60;7.70;;;21.10;94.60;;;;;;5010844;28;20895;-83
2021/07/21 12:14:02;;;;;;;11.70;7.80;;;21.10;95.70;;;;;;5007079;28;20483;-84
2021/07/21 12:16:36;;;;;;;15.33;9.00;;;21.10;97.10;;;;;;5004857;28;20473;-84
2021/07/21 12:19:06;;;;;;;15.07;8.60;;;21.10;96.90;;;;;;5006476;28;20451;-83
2021/07/21 12:21:34;;;;;;;14.47;8.63;;;21.10;96.80;;;;;;5010000;28;20801;-84
2021/07/21 12:24:05;;;;;;;17.40;9.00;;;21.20;97.30;;;;;;5014773;28;20423;-84
2021/07/21 12:26:38;;;;;;;13.30;7.37;;;21.10;96.40;;;;;;5010948;28;20836;-84
2021/07/21 12:29:04;;;;;;;15.90;8.67;;;21.20;97.20;;;;;;5012578;28;20408;-84
2021/07/21 12:31:30;;;;;;;13.13;8.10;;;21.20;95.90;;;;;;5015277;28;21046;-84
2021/07/21 12:34:17;;;;;;;13.27;7.77;;;21.20;96.80;;;;;;5006273;28;20177;-84
2021/07/21 12:36:48;;;;;;;11.87;8.10;;;21.30;97.30;;;;;;5009327;28;20930;-85
2021/07/21 12:39:16;;;;;;;12.33;8.00;;;21.30;96.90;;;;;;5014225;28;20805;-84
2021/07/21 12:41:42;;;;;;;14.73;8.10;;;21.20;95.70;;;;;;5014057;28;20448;-84
2021/07/21 12:44:16;;;;;;;14.90;8.00;;;21.20;94.90;;;;;;5003412;28;20424;-84
2021/07/21 12:46:42;;;;;;;16.80;8.33;;;21.20;95.40;;;;;;5004372;28;20470;-84
2021/07/21 12:49:08;;;;;;;17.27;8.13;;;21.10;94.40;;;;;;5005796;28;20417;-84
2021/07/21 12:51:34;;;;;;;17.03;7.97;;;21.10;95.60;;;;;;4998655;28;20448;-84
2021/07/21 12:54:00;;;;;;;12.10;7.53;;;21.10;95.20;;;;;;4998926;28;20173;-84